Gluecksburg — 9HA3437 — position and weather

sailwx.info

Track history (hours):
 
Tides and Currents Weather Stations Pressure Air Temp Water Temp Dewpoint Dewpoint Depression Visibility Wind Speed Wind Dir Waves Ship Positions

Gluecksburg

Last reported at 2017-Nov-16 22:56 UTC. Time now 2017-Nov-22 22:12 UTC.
Position N 11°11' W 074°43'.

Length 176 m; draft 7.8 m.

Type: Cargo ship. MMSI: 229600000.

Date/timePositionNaut miles runAvg speedWind from/ knotsBaromVisibWave heightAir tempDewpointWater temp
2017-Nov-16 22:56N 11°11' W 074°43'920.9
2017-Nov-16 22:29N 11°09' W 074°53'1520.8
2017-Nov-16 21:46N 11°04' W 075°07'3420.7
2017-Nov-16 20:09N 10°44' W 075°34'321.5
2017-Nov-16 20:00N 10°40' W 075°35'1021.0
2017-Nov-16 19:30N 10°30' W 075°37'1019.1
2017-Nov-16 19:00N 10°21' W 075°37'4 8.8
2017-Nov-16 18:30N 10°20' W 075°32'4 7.6
2017-Nov-16 18:00N 10°24' W 075°32'0 0.0
2017-Nov-16 17:28N 10°24' W 075°32'0 0.0
2017-Nov-16 16:58N 10°24' W 075°32'0 0.0
2017-Nov-16 16:28N 10°24' W 075°32'0 0.0
2017-Nov-16 15:58N 10°24' W 075°32'0 0.0
2017-Nov-16 15:28N 10°24' W 075°32'0 0.0
2017-Nov-16 14:58N 10°24' W 075°32'0 0.0
2017-Nov-16 14:28N 10°24' W 075°32'0 0.0
2017-Nov-16 13:58N 10°24' W 075°32'0 0.0
2017-Nov-16 13:28N 10°24' W 075°32'0 0.0
2017-Nov-16 12:58N 10°24' W 075°32'0 0.0
2017-Nov-16 12:28N 10°24' W 075°32'0 0.0
2017-Nov-16 11:58N 10°24' W 075°32'0 0.0
2017-Nov-16 11:28N 10°24' W 075°32'0 0.0
2017-Nov-16 10:58N 10°24' W 075°32'0 0.0
2017-Nov-16 10:28N 10°24' W 075°32'0 0.0
2017-Nov-16 09:58N 10°24' W 075°32'0 0.0
2017-Nov-16 09:28N 10°24' W 075°32'0 0.0
2017-Nov-16 08:10N 10°24' W 075°32'0 0.0
2017-Nov-16 07:58N 10°24' W 075°32'0 0.0
2017-Nov-16 07:28N 10°24' W 075°32'0 0.0
2017-Nov-16 06:58N 10°24' W 075°32'0 0.0
2017-Nov-16 06:28N 10°24' W 075°32'0 0.0
2017-Nov-16 05:58N 10°24' W 075°32'0 0.0
2017-Nov-16 05:28N 10°24' W 075°32'0 0.0
2017-Nov-16 04:58N 10°24' W 075°32'0 0.0
2017-Nov-16 04:28N 10°24' W 075°32'0 0.0
2017-Nov-16 03:58N 10°24' W 075°32'0 0.0
2017-Nov-16 03:28N 10°24' W 075°32'0 0.0
2017-Nov-16 02:58N 10°24' W 075°32'0 0.2
2017-Nov-16 02:30N 10°24' W 075°32'3 5.1
2017-Nov-16 02:00N 10°21' W 075°32'5 9.6
2017-Nov-16 01:30N 10°19' W 075°36'714.2
2017-Nov-16 01:00N 10°22' W 075°42'917.9
2017-Nov-16 00:30N 10°31' W 075°39'5016.4
2017-Nov-15 21:25N 11°05' W 075°01'715.9
2017-Nov-15 21:00N 11°07' W 074°55'5 9.5
2017-Nov-15 20:30N 11°04' W 074°51'811.3
2017-Nov-15 19:49N 10°59' W 074°45'1 0.1
2017-Nov-15 10:40N 10°58' W 074°46'0 0.0
2017-Nov-15 10:16N 10°58' W 074°46'0 0.0
2017-Nov-15 09:58N 10°58' W 074°46'0 0.0
2017-Nov-15 07:52N 10°58' W 074°46'13 1.3
2017-Nov-14 21:43N 11°08' W 074°54'0 2.2
2017-Nov-14 21:30N 11°08' W 074°54'1 1.7
2017-Nov-14 21:00N 11°09' W 074°54'1 1.0
2017-Nov-14 20:30N 11°09' W 074°55'4 8.5
2017-Nov-14 20:00N 11°13' W 074°55'  
2017-Nov-11 03:55N 25°24' W 079°39'717.3
2017-Nov-11 03:30N 25°31' W 079°41'815.7
2017-Nov-11 03:00N 25°37' W 079°46'816.5
2017-Nov-11 02:30N 25°41' W 079°54'815.5
2017-Nov-11 02:00N 25°44' W 080°02'510.4
2017-Nov-11 01:30N 25°46' W 080°08'2 4.4
2017-Nov-11 01:00N 25°46' W 080°10'0 0.1
2017-Nov-11 00:30N 25°46' W 080°10'0 0.0
2017-Nov-11 00:00N 25°46' W 080°10'0 0.0
2017-Nov-10 23:30N 25°46' W 080°10'0 0.0
2017-Nov-10 23:00N 25°46' W 080°10'0 0.0
2017-Nov-10 22:30N 25°46' W 080°10'0 0.0
2017-Nov-10 22:00N 25°46' W 080°10'0 0.0
2017-Nov-10 21:30N 25°46' W 080°10'0 0.0
2017-Nov-10 21:00N 25°46' W 080°10'0 0.0
2017-Nov-10 20:30N 25°46' W 080°10'0 0.0
2017-Nov-10 20:00N 25°46' W 080°10'0 0.0
2017-Nov-10 19:30N 25°46' W 080°10'0 0.0
2017-Nov-10 19:00N 25°46' W 080°10'0 0.0
2017-Nov-10 18:30N 25°46' W 080°10'0 0.0
2017-Nov-10 18:00N 25°46' W 080°10'0 0.0
2017-Nov-10 17:30N 25°46' W 080°10'0 0.0
2017-Nov-10 17:00N 25°46' W 080°10'0 0.0
2017-Nov-10 16:30N 25°46' W 080°10'0 0.0
2017-Nov-10 16:00N 25°46' W 080°10'0 0.0
2017-Nov-10 15:30N 25°46' W 080°10'0 0.0
2017-Nov-10 15:00N 25°46' W 080°10'0 0.0
2017-Nov-10 14:30N 25°46' W 080°10'0 0.0
2017-Nov-10 14:00N 25°46' W 080°10'0 0.0
2017-Nov-10 13:30N 25°46' W 080°10'0 0.0
2017-Nov-10 13:00N 25°46' W 080°10'0 0.0
2017-Nov-10 12:30N 25°46' W 080°10'0 0.0
2017-Nov-10 12:00N 25°46' W 080°10'0 0.0
2017-Nov-10 11:30N 25°46' W 080°10'0 0.0
2017-Nov-10 11:00N 25°46' W 080°10'0 0.0
2017-Nov-10 10:30N 25°46' W 080°10'0 0.0
2017-Nov-10 10:00N 25°46' W 080°10'0 0.0
2017-Nov-10 09:30N 25°46' W 080°10'0 0.0
2017-Nov-10 09:00N 25°46' W 080°10'0 0.0
2017-Nov-10 08:30N 25°46' W 080°10'0 0.0
2017-Nov-10 08:00N 25°46' W 080°10'0 0.0
2017-Nov-10 07:30N 25°46' W 080°10'0 0.0
2017-Nov-10 07:00N 25°46' W 080°10'0 0.0
2017-Nov-10 06:30N 25°46' W 080°10'0 0.0
2017-Nov-10 06:00N 25°46' W 080°10'0 0.0
2017-Nov-10 05:30N 25°46' W 080°10'0 0.0
2017-Nov-10 05:00N 25°46' W 080°10'0 0.0
2017-Nov-10 04:30N 25°46' W 080°10'0 0.0
2017-Nov-10 04:00N 25°46' W 080°10'0 0.0
2017-Nov-10 03:30N 25°46' W 080°10'0 0.0
2017-Nov-10 03:00N 25°46' W 080°10'0 0.0
2017-Nov-10 02:30N 25°46' W 080°10'0 0.0
2017-Nov-10 02:00N 25°46' W 080°10'0 0.0
2017-Nov-10 01:30N 25°46' W 080°10'0 0.0
2017-Nov-10 01:00N 25°46' W 080°10'0 0.0
2017-Nov-10 00:30N 25°46' W 080°10'0 0.0
2017-Nov-10 00:00N 25°46' W 080°10'0 0.0
2017-Nov-09 23:30N 25°46' W 080°10'0 0.0
2017-Nov-09 23:00N 25°46' W 080°10'0 0.0
2017-Nov-09 22:30N 25°46' W 080°10'0 0.0
2017-Nov-09 22:00N 25°46' W 080°10'0 0.0
2017-Nov-09 21:30N 25°46' W 080°10'0 0.0
2017-Nov-09 21:00N 25°46' W 080°10'0 0.0
2017-Nov-09 20:30N 25°46' W 080°10'0 0.0
2017-Nov-09 20:00N 25°46' W 080°10'0 0.0
2017-Nov-09 19:30N 25°46' W 080°10'0 0.0
2017-Nov-09 19:00N 25°46' W 080°10'0 0.0
2017-Nov-09 18:30N 25°46' W 080°10'0 0.0
2017-Nov-09 18:00N 25°46' W 080°10'0 0.0
2017-Nov-09 17:30N 25°46' W 080°10'0 0.0
2017-Nov-09 17:00N 25°46' W 080°10'1 1.1
2017-Nov-09 16:30N 25°46' W 080°09'510.0
2017-Nov-09 16:00N 25°46' W 080°04'3 6.9
2017-Nov-09 15:30N 25°45' W 080°00'611.4
2017-Nov-09 15:00N 25°42' W 079°55'612.9
2017-Nov-09 14:30N 25°39' W 079°49'713.3
2017-Nov-09 13:59N 25°35' W 079°42'612.9
2017-Nov-09 13:31N 25°30' W 079°38'511.0
2017-Nov-09 13:00N 25°24' W 079°38'  
Track history (hours):
 
Tides and Currents Weather Stations Pressure Air Temp Water Temp Dewpoint Dewpoint Depression Visibility Wind Speed Wind Dir Waves Ship Positions

Gluecksburg

Last reported at 2017-Nov-16 22:56 UTC. Time now 2017-Nov-22 22:12 UTC.
Position N 11°11' W 074°43'.

Length 176 m; draft 7.8 m.

Type: Cargo ship. MMSI: 229600000.

Date/timePositionNaut miles runAvg speedWind from/ knotsBaromVisibWave heightAir tempDewpointWater temp
2017-Nov-16 22:56N 11°11' W 074°43'920.9
2017-Nov-16 22:29N 11°09' W 074°53'1520.8
2017-Nov-16 21:46N 11°04' W 075°07'3420.7
2017-Nov-16 20:09N 10°44' W 075°34'321.5
2017-Nov-16 20:00N 10°40' W 075°35'1021.0
2017-Nov-16 19:30N 10°30' W 075°37'1019.1
2017-Nov-16 19:00N 10°21' W 075°37'4 8.8
2017-Nov-16 18:30N 10°20' W 075°32'4 7.6
2017-Nov-16 18:00N 10°24' W 075°32'0 0.0
2017-Nov-16 17:28N 10°24' W 075°32'0 0.0
2017-Nov-16 16:58N 10°24' W 075°32'0 0.0
2017-Nov-16 16:28N 10°24' W 075°32'0 0.0
2017-Nov-16 15:58N 10°24' W 075°32'0 0.0
2017-Nov-16 15:28N 10°24' W 075°32'0 0.0
2017-Nov-16 14:58N 10°24' W 075°32'0 0.0
2017-Nov-16 14:28N 10°24' W 075°32'0 0.0
2017-Nov-16 13:58N 10°24' W 075°32'0 0.0
2017-Nov-16 13:28N 10°24' W 075°32'0 0.0
2017-Nov-16 12:58N 10°24' W 075°32'0 0.0
2017-Nov-16 12:28N 10°24' W 075°32'0 0.0
2017-Nov-16 11:58N 10°24' W 075°32'0 0.0
2017-Nov-16 11:28N 10°24' W 075°32'0 0.0
2017-Nov-16 10:58N 10°24' W 075°32'0 0.0
2017-Nov-16 10:28N 10°24' W 075°32'0 0.0
2017-Nov-16 09:58N 10°24' W 075°32'0 0.0
2017-Nov-16 09:28N 10°24' W 075°32'0 0.0
2017-Nov-16 08:10N 10°24' W 075°32'0 0.0
2017-Nov-16 07:58N 10°24' W 075°32'0 0.0
2017-Nov-16 07:28N 10°24' W 075°32'0 0.0
2017-Nov-16 06:58N 10°24' W 075°32'0 0.0
2017-Nov-16 06:28N 10°24' W 075°32'0 0.0
2017-Nov-16 05:58N 10°24' W 075°32'0 0.0
2017-Nov-16 05:28N 10°24' W 075°32'0 0.0
2017-Nov-16 04:58N 10°24' W 075°32'0 0.0
2017-Nov-16 04:28N 10°24' W 075°32'0 0.0
2017-Nov-16 03:58N 10°24' W 075°32'0 0.0
2017-Nov-16 03:28N 10°24' W 075°32'0 0.0
2017-Nov-16 02:58N 10°24' W 075°32'0 0.2
2017-Nov-16 02:30N 10°24' W 075°32'3 5.1
2017-Nov-16 02:00N 10°21' W 075°32'5 9.6
2017-Nov-16 01:30N 10°19' W 075°36'714.2
2017-Nov-16 01:00N 10°22' W 075°42'917.9
2017-Nov-16 00:30N 10°31' W 075°39'5016.4
2017-Nov-15 21:25N 11°05' W 075°01'715.9
2017-Nov-15 21:00N 11°07' W 074°55'5 9.5
2017-Nov-15 20:30N 11°04' W 074°51'811.3
2017-Nov-15 19:49N 10°59' W 074°45'1 0.1
2017-Nov-15 10:40N 10°58' W 074°46'0 0.0
2017-Nov-15 10:16N 10°58' W 074°46'0 0.0
2017-Nov-15 09:58N 10°58' W 074°46'0 0.0
2017-Nov-15 07:52N 10°58' W 074°46'13 1.3
2017-Nov-14 21:43N 11°08' W 074°54'0 2.2
2017-Nov-14 21:30N 11°08' W 074°54'1 1.7
2017-Nov-14 21:00N 11°09' W 074°54'1 1.0
2017-Nov-14 20:30N 11°09' W 074°55'4 8.5
2017-Nov-14 20:00N 11°13' W 074°55'  
2017-Nov-11 03:55N 25°24' W 079°39'717.3
2017-Nov-11 03:30N 25°31' W 079°41'815.7
2017-Nov-11 03:00N 25°37' W 079°46'816.5
2017-Nov-11 02:30N 25°41' W 079°54'815.5
2017-Nov-11 02:00N 25°44' W 080°02'510.4
2017-Nov-11 01:30N 25°46' W 080°08'2 4.4
2017-Nov-11 01:00N 25°46' W 080°10'0 0.1
2017-Nov-11 00:30N 25°46' W 080°10'0 0.0
2017-Nov-11 00:00N 25°46' W 080°10'0 0.0
2017-Nov-10 23:30N 25°46' W 080°10'0 0.0
2017-Nov-10 23:00N 25°46' W 080°10'0 0.0
2017-Nov-10 22:30N 25°46' W 080°10'0 0.0
2017-Nov-10 22:00N 25°46' W 080°10'0 0.0
2017-Nov-10 21:30N 25°46' W 080°10'0 0.0
2017-Nov-10 21:00N 25°46' W 080°10'0 0.0
2017-Nov-10 20:30N 25°46' W 080°10'0 0.0
2017-Nov-10 20:00N 25°46' W 080°10'0 0.0
2017-Nov-10 19:30N 25°46' W 080°10'0 0.0
2017-Nov-10 19:00N 25°46' W 080°10'0 0.0
2017-Nov-10 18:30N 25°46' W 080°10'0 0.0
2017-Nov-10 18:00N 25°46' W 080°10'0 0.0
2017-Nov-10 17:30N 25°46' W 080°10'0 0.0
2017-Nov-10 17:00N 25°46' W 080°10'0 0.0
2017-Nov-10 16:30N 25°46' W 080°10'0 0.0
2017-Nov-10 16:00N 25°46' W 080°10'0 0.0
2017-Nov-10 15:30N 25°46' W 080°10'0 0.0
2017-Nov-10 15:00N 25°46' W 080°10'0 0.0
2017-Nov-10 14:30N 25°46' W 080°10'0 0.0
2017-Nov-10 14:00N 25°46' W 080°10'0 0.0
2017-Nov-10 13:30N 25°46' W 080°10'0 0.0
2017-Nov-10 13:00N 25°46' W 080°10'0 0.0
2017-Nov-10 12:30N 25°46' W 080°10'0 0.0
2017-Nov-10 12:00N 25°46' W 080°10'0 0.0
2017-Nov-10 11:30N 25°46' W 080°10'0 0.0
2017-Nov-10 11:00N 25°46' W 080°10'0 0.0
2017-Nov-10 10:30N 25°46' W 080°10'0 0.0
2017-Nov-10 10:00N 25°46' W 080°10'0 0.0
2017-Nov-10 09:30N 25°46' W 080°10'0 0.0
2017-Nov-10 09:00N 25°46' W 080°10'0 0.0
2017-Nov-10 08:30N 25°46' W 080°10'0 0.0
2017-Nov-10 08:00N 25°46' W 080°10'0 0.0
2017-Nov-10 07:30N 25°46' W 080°10'0 0.0
2017-Nov-10 07:00N 25°46' W 080°10'0 0.0
2017-Nov-10 06:30N 25°46' W 080°10'0 0.0
2017-Nov-10 06:00N 25°46' W 080°10'0 0.0
2017-Nov-10 05:30N 25°46' W 080°10'0 0.0
2017-Nov-10 05:00N 25°46' W 080°10'0 0.0
2017-Nov-10 04:30N 25°46' W 080°10'0 0.0
2017-Nov-10 04:00N 25°46' W 080°10'0 0.0
2017-Nov-10 03:30N 25°46' W 080°10'0 0.0
2017-Nov-10 03:00N 25°46' W 080°10'0 0.0
2017-Nov-10 02:30N 25°46' W 080°10'0 0.0
2017-Nov-10 02:00N 25°46' W 080°10'0 0.0
2017-Nov-10 01:30N 25°46' W 080°10'0 0.0
2017-Nov-10 01:00N 25°46' W 080°10'0 0.0
2017-Nov-10 00:30N 25°46' W 080°10'0 0.0
2017-Nov-10 00:00N 25°46' W 080°10'0 0.0
2017-Nov-09 23:30N 25°46' W 080°10'0 0.0
2017-Nov-09 23:00N 25°46' W 080°10'0 0.0
2017-Nov-09 22:30N 25°46' W 080°10'0 0.0
2017-Nov-09 22:00N 25°46' W 080°10'0 0.0
2017-Nov-09 21:30N 25°46' W 080°10'0 0.0
2017-Nov-09 21:00N 25°46' W 080°10'0 0.0
2017-Nov-09 20:30N 25°46' W 080°10'0 0.0
2017-Nov-09 20:00N 25°46' W 080°10'0 0.0
2017-Nov-09 19:30N 25°46' W 080°10'0 0.0
2017-Nov-09 19:00N 25°46' W 080°10'0 0.0
2017-Nov-09 18:30N 25°46' W 080°10'0 0.0
2017-Nov-09 18:00N 25°46' W 080°10'0 0.0
2017-Nov-09 17:30N 25°46' W 080°10'0 0.0
2017-Nov-09 17:00N 25°46' W 080°10'1 1.1
2017-Nov-09 16:30N 25°46' W 080°09'510.0
2017-Nov-09 16:00N 25°46' W 080°04'3 6.9
2017-Nov-09 15:30N 25°45' W 080°00'611.4
2017-Nov-09 15:00N 25°42' W 079°55'612.9
2017-Nov-09 14:30N 25°39' W 079°49'713.3
2017-Nov-09 13:59N 25°35' W 079°42'612.9
2017-Nov-09 13:31N 25°30' W 079°38'511.0
2017-Nov-09 13:00N 25°24' W 079°38'  

Dump ship's entire track history